createdAt,value
2018-07-06T00:01:27.122Z,17.60
2018-07-06T00:04:06.583Z,17.60
2018-07-06T00:06:46.413Z,17.60
2018-07-06T00:09:25.961Z,17.60
2018-07-06T00:12:05.365Z,17.60
2018-07-06T00:14:45.252Z,17.60
2018-07-06T00:17:24.912Z,17.60
2018-07-06T00:20:04.462Z,17.60
2018-07-06T00:22:43.915Z,17.60
2018-07-06T00:25:23.624Z,17.60
2018-07-06T00:28:03.266Z,17.60
2018-07-06T00:30:42.770Z,17.60
2018-07-06T00:33:22.331Z,17.60
2018-07-06T00:36:01.868Z,17.60
2018-07-06T00:38:41.434Z,17.60
2018-07-06T00:41:21.005Z,17.60
2018-07-06T00:44:00.666Z,17.60
2018-07-06T00:46:40.344Z,17.60
2018-07-06T00:49:19.998Z,17.60
2018-07-06T00:51:59.548Z,17.60
2018-07-06T00:54:39.304Z,17.50
2018-07-06T00:57:18.836Z,17.60
2018-07-06T00:59:58.428Z,17.50
2018-07-06T01:02:38.090Z,17.50
2018-07-06T01:05:17.819Z,17.50
2018-07-06T01:07:57.264Z,17.50
2018-07-06T01:10:36.872Z,17.50
2018-07-06T01:13:16.574Z,17.50
2018-07-06T01:15:56.172Z,17.50
2018-07-06T01:18:35.943Z,17.50
2018-07-06T01:23:49.313Z,17.50
2018-07-06T01:26:28.996Z,17.60
2018-07-06T01:29:08.568Z,17.50
2018-07-06T01:34:21.718Z,17.50
2018-07-06T01:37:01.158Z,17.50
2018-07-06T01:39:40.860Z,17.60
2018-07-06T01:42:20.313Z,17.60
2018-07-06T01:45:00.056Z,17.60
2018-07-06T01:47:39.705Z,17.60
2018-07-06T01:50:19.330Z,17.60
2018-07-06T01:52:58.956Z,17.60
2018-07-06T01:55:38.466Z,17.60
2018-07-06T01:58:18.103Z,17.60
2018-07-06T02:00:57.749Z,17.70
2018-07-06T02:03:37.477Z,17.70
2018-07-06T02:06:17.126Z,17.70
2018-07-06T02:08:56.928Z,17.70
2018-07-06T02:11:36.371Z,17.80
2018-07-06T02:14:16.132Z,17.70
2018-07-06T02:16:55.733Z,17.70
2018-07-06T02:19:35.423Z,17.70
2018-07-06T02:22:14.930Z,17.70
2018-07-06T02:24:54.557Z,17.70
2018-07-06T02:27:34.241Z,17.70
2018-07-06T02:30:13.876Z,17.70
2018-07-06T02:32:53.497Z,17.70
2018-07-06T02:35:32.954Z,17.80
2018-07-06T02:38:12.576Z,17.80
2018-07-06T02:40:52.044Z,17.80
2018-07-06T02:46:06.484Z,17.80
2018-07-06T02:48:46.130Z,17.80
2018-07-06T02:51:25.783Z,17.70
2018-07-06T02:54:05.292Z,17.60
2018-07-06T02:56:44.947Z,17.60
2018-07-06T02:59:24.412Z,17.60
2018-07-06T03:02:04.081Z,17.60
2018-07-06T03:04:43.737Z,17.60
2018-07-06T03:07:23.336Z,17.50
2018-07-06T03:10:03.130Z,17.50
2018-07-06T03:12:42.827Z,17.50
2018-07-06T03:17:55.831Z,17.20
2018-07-06T03:20:35.451Z,17.10
2018-07-06T03:23:14.975Z,17.10
2018-07-06T03:25:54.572Z,17.10
2018-07-06T03:28:34.307Z,17.10
2018-07-06T03:31:13.805Z,17.10
2018-07-06T03:33:53.387Z,17.20
2018-07-06T03:36:33.054Z,17.30
2018-07-06T03:39:12.546Z,17.30
2018-07-06T03:41:54.174Z,17.30
2018-07-06T03:44:33.936Z,17.30
2018-07-06T03:47:13.550Z,17.40
2018-07-06T03:49:53.275Z,17.40
2018-07-06T03:52:32.908Z,17.40
2018-07-06T03:55:13.311Z,17.40
2018-07-06T03:57:52.887Z,17.40
2018-07-06T04:00:32.426Z,17.30
2018-07-06T04:03:12.057Z,17.30
2018-07-06T04:05:51.700Z,17.20
2018-07-06T04:08:31.346Z,17.20
2018-07-06T04:11:10.781Z,17.20
2018-07-06T04:13:50.442Z,17.20
2018-07-06T04:16:29.943Z,17.30
2018-07-06T04:19:11.643Z,17.30
2018-07-06T04:21:52.436Z,17.30
2018-07-06T04:24:32.338Z,17.30
2018-07-06T04:27:12.699Z,17.30
2018-07-06T04:29:52.372Z,17.40
2018-07-06T04:32:32.415Z,17.40
2018-07-06T04:35:12.430Z,17.50
2018-07-06T04:37:51.988Z,17.40
2018-07-06T04:40:31.594Z,17.50
2018-07-06T04:43:11.188Z,17.50
2018-07-06T04:45:51.140Z,17.60
2018-07-06T04:48:30.810Z,17.70
2018-07-06T04:51:10.228Z,17.80
2018-07-06T04:53:49.808Z,17.70
2018-07-06T04:56:29.529Z,17.80
2018-07-06T04:59:09.248Z,17.70
2018-07-06T05:01:48.647Z,17.80
2018-07-06T05:04:32.024Z,17.80
2018-07-06T05:07:11.484Z,17.80
2018-07-06T05:09:51.089Z,17.80
2018-07-06T05:12:30.680Z,17.80
2018-07-06T05:15:10.278Z,17.80
2018-07-06T05:17:49.961Z,17.90
2018-07-06T05:20:29.377Z,17.90
2018-07-06T05:23:09.122Z,17.90
2018-07-06T05:25:48.892Z,17.90
2018-07-06T05:28:28.562Z,18.00
2018-07-06T05:31:08.018Z,17.90
2018-07-06T05:33:47.727Z,17.90
2018-07-06T05:36:27.417Z,17.90
2018-07-06T05:39:07.032Z,18.00
2018-07-06T05:41:46.492Z,18.10
2018-07-06T05:44:26.098Z,18.10
2018-07-06T05:47:05.515Z,18.20
2018-07-06T05:49:45.096Z,18.20
2018-07-06T05:52:24.726Z,18.20
2018-07-06T05:55:04.306Z,18.20
2018-07-06T05:57:43.758Z,18.20
2018-07-06T06:00:23.131Z,18.30
2018-07-06T06:03:02.708Z,18.40
2018-07-06T06:05:42.472Z,18.60
2018-07-06T06:08:09.739Z,18.70
2018-07-06T06:10:37.932Z,18.90
2018-07-06T06:13:06.091Z,19.10
2018-07-06T06:15:35.548Z,19.10
2018-07-06T06:18:03.763Z,19.00
2018-07-06T06:20:31.926Z,18.90
2018-07-06T06:23:00.169Z,18.90
2018-07-06T06:25:29.574Z,18.80
2018-07-06T06:27:57.735Z,18.80
2018-07-06T06:30:25.939Z,18.80
2018-07-06T06:32:54.166Z,18.70
2018-07-06T06:37:50.518Z,18.80
2018-07-06T06:40:18.715Z,18.90
2018-07-06T06:42:46.918Z,18.90
2018-07-06T06:46:44.707Z,18.90
2018-07-06T06:49:12.961Z,18.90
2018-07-06T06:51:41.767Z,18.80
2018-07-06T06:54:10.489Z,18.70
2018-07-06T06:56:38.699Z,18.80
2018-07-06T06:59:06.929Z,19.00
2018-07-06T07:01:35.154Z,19.10
2018-07-06T07:04:03.362Z,19.00
2018-07-06T07:06:31.612Z,19.00
2018-07-06T07:08:59.821Z,19.10
2018-07-06T07:11:28.033Z,19.20
2018-07-06T07:13:56.382Z,19.30
2018-07-06T07:18:52.695Z,19.10
2018-07-06T07:21:20.901Z,19.10
2018-07-06T07:23:49.178Z,19.10
2018-07-06T07:26:17.451Z,19.10
2018-07-06T07:28:45.848Z,19.20
2018-07-06T07:31:14.017Z,19.30
2018-07-06T07:33:42.277Z,19.30
2018-07-06T07:36:10.534Z,19.30
2018-07-06T07:41:06.874Z,19.20
2018-07-06T07:43:35.153Z,19.20
2018-07-06T07:46:03.567Z,19.10
2018-07-06T07:48:31.760Z,19.10
2018-07-06T07:51:11.197Z,19.20
2018-07-06T07:53:51.095Z,19.20
2018-07-06T07:56:19.310Z,19.10
2018-07-06T07:58:47.516Z,19.00
2018-07-06T08:01:15.930Z,18.90
2018-07-06T08:03:44.073Z,19.10
2018-07-06T08:06:12.474Z,19.20
2018-07-06T08:08:40.654Z,19.40
2018-07-06T08:11:08.853Z,19.40
2018-07-06T08:13:37.070Z,19.30
2018-07-06T08:16:05.301Z,19.30
2018-07-06T08:18:33.509Z,19.40
2018-07-06T08:21:01.700Z,19.40
2018-07-06T08:23:29.903Z,19.40
2018-07-06T08:25:58.261Z,19.50
2018-07-06T08:28:26.412Z,19.50
2018-07-06T08:30:54.734Z,19.50
2018-07-06T08:33:23.499Z,19.60
2018-07-06T08:36:02.959Z,19.50
2018-07-06T08:38:31.168Z,19.70
2018-07-06T08:40:59.461Z,19.90
2018-07-06T08:43:27.628Z,20.00
2018-07-06T08:45:55.911Z,20.00
2018-07-06T08:48:24.063Z,20.10
2018-07-06T08:50:52.227Z,20.10
2018-07-06T08:53:20.402Z,20.00
2018-07-06T08:55:48.736Z,19.90
2018-07-06T08:58:16.972Z,19.90
2018-07-06T09:00:45.262Z,20.00
2018-07-06T09:05:41.470Z,19.80
2018-07-06T09:08:09.679Z,20.00
2018-07-06T09:13:06.262Z,19.90
2018-07-06T09:18:03.540Z,20.20
2018-07-06T09:20:31.712Z,20.10
2018-07-06T09:22:59.918Z,20.00
2018-07-06T09:25:28.408Z,20.10
2018-07-06T09:27:56.487Z,20.30
2018-07-06T09:30:24.700Z,20.40
2018-07-06T09:32:52.865Z,20.50
2018-07-06T09:35:21.196Z,20.40
2018-07-06T09:37:50.233Z,20.30
2018-07-06T09:40:18.494Z,20.40
2018-07-06T09:45:14.881Z,20.50
2018-07-06T09:47:43.057Z,20.40
2018-07-06T09:50:11.241Z,20.40
2018-07-06T09:52:39.398Z,20.40
2018-07-06T09:55:07.775Z,20.50
2018-07-06T09:57:35.935Z,20.50
2018-07-06T10:00:04.627Z,20.70
2018-07-06T10:02:32.850Z,20.60
2018-07-06T10:05:01.064Z,20.60
2018-07-06T10:07:29.221Z,20.80
2018-07-06T10:09:57.383Z,20.70
2018-07-06T10:12:25.611Z,20.70
2018-07-06T10:14:54.083Z,20.90
2018-07-06T10:17:22.487Z,21.00
2018-07-06T10:19:50.713Z,20.80
2018-07-06T10:22:18.951Z,20.80
2018-07-06T10:24:47.299Z,20.70
2018-07-06T10:27:15.541Z,20.50
2018-07-06T10:29:55.444Z,20.20
2018-07-06T10:32:25.986Z,20.20
2018-07-06T10:34:54.495Z,20.30
2018-07-06T10:37:22.853Z,20.40
2018-07-06T10:39:51.543Z,20.40
2018-07-06T10:42:19.795Z,20.40
2018-07-06T10:44:48.099Z,20.50
2018-07-06T10:47:16.314Z,20.50
2018-07-06T10:49:44.639Z,20.50
2018-07-06T10:52:13.557Z,20.50
2018-07-06T10:54:42.729Z,20.60
2018-07-06T10:59:38.981Z,20.60
2018-07-06T11:02:07.189Z,20.60
2018-07-06T11:04:35.630Z,20.70
2018-07-06T11:07:03.837Z,20.70
2018-07-06T11:09:32.015Z,20.60
2018-07-06T11:12:00.189Z,20.70
2018-07-06T11:14:28.417Z,20.80
2018-07-06T11:16:56.641Z,20.90
2018-07-06T11:19:24.838Z,20.90
2018-07-06T11:21:53.032Z,20.90
2018-07-06T11:24:21.221Z,20.80
2018-07-06T11:26:49.426Z,20.90
2018-07-06T11:29:17.678Z,20.70
2018-07-06T11:31:45.910Z,20.70
2018-07-06T11:34:14.088Z,20.80
2018-07-06T11:36:42.338Z,20.80
2018-07-06T11:39:10.645Z,20.70
2018-07-06T11:44:07.104Z,20.70
2018-07-06T11:46:41.964Z,20.60
2018-07-06T11:49:10.136Z,20.80
2018-07-06T11:51:38.312Z,20.90
2018-07-06T11:54:06.647Z,20.90
2018-07-06T11:59:02.811Z,21.00
2018-07-06T12:01:30.996Z,21.00
2018-07-06T12:03:59.216Z,21.00
2018-07-06T12:06:27.547Z,21.00
2018-07-06T12:08:55.710Z,20.90
2018-07-06T12:11:23.940Z,21.00
2018-07-06T12:13:52.577Z,21.00
2018-07-06T12:16:20.956Z,21.10
2018-07-06T12:18:49.165Z,21.20
2018-07-06T12:21:17.370Z,21.20
2018-07-06T12:23:45.596Z,21.30
2018-07-06T12:26:13.900Z,21.40
2018-07-06T12:28:42.101Z,21.40
2018-07-06T12:31:10.301Z,21.60
2018-07-06T12:33:38.674Z,21.60
2018-07-06T12:36:07.009Z,21.70
2018-07-06T12:38:35.245Z,21.80
2018-07-06T12:41:03.499Z,21.50
2018-07-06T12:43:31.718Z,21.60
2018-07-06T12:46:00.050Z,21.50
2018-07-06T12:48:28.237Z,21.50
2018-07-06T12:50:56.460Z,21.60
2018-07-06T12:53:24.664Z,21.50
2018-07-06T12:55:52.909Z,21.60
2018-07-06T12:58:21.173Z,21.60
2018-07-06T13:00:49.416Z,21.70
2018-07-06T13:03:17.690Z,21.60
2018-07-06T13:05:46.195Z,21.60
2018-07-06T13:08:14.656Z,21.80
2018-07-06T13:10:42.902Z,21.80
2018-07-06T13:13:11.088Z,21.90
2018-07-06T13:15:39.349Z,21.90
2018-07-06T13:18:07.498Z,21.90
2018-07-06T13:20:35.854Z,21.90
2018-07-06T13:23:04.009Z,21.70
2018-07-06T13:25:33.256Z,21.70
2018-07-06T13:28:01.738Z,21.70
2018-07-06T13:30:29.918Z,21.80
2018-07-06T13:32:58.135Z,21.90
2018-07-06T13:35:26.378Z,21.90
2018-07-06T13:37:54.627Z,21.80
2018-07-06T13:40:22.786Z,21.70
2018-07-06T13:42:51.192Z,21.80
2018-07-06T13:45:19.551Z,21.70
2018-07-06T13:47:47.929Z,21.70
2018-07-06T13:52:44.064Z,21.90
2018-07-06T13:55:12.369Z,21.80
2018-07-06T13:57:40.552Z,21.60
2018-07-06T14:00:08.753Z,21.50
2018-07-06T14:02:36.964Z,21.60
2018-07-06T14:07:33.993Z,21.50
2018-07-06T14:10:02.165Z,21.60
2018-07-06T14:12:30.338Z,21.70
2018-07-06T14:15:00.283Z,21.60
2018-07-06T14:17:28.458Z,21.60
2018-07-06T14:19:56.664Z,21.60
2018-07-06T14:22:24.900Z,21.70
2018-07-06T14:24:53.151Z,21.70
2018-07-06T14:27:21.381Z,21.70
2018-07-06T14:29:49.572Z,21.70
2018-07-06T14:32:17.833Z,21.50
2018-07-06T14:34:46.226Z,21.50
2018-07-06T14:37:14.430Z,21.50
2018-07-06T14:39:42.662Z,21.50
2018-07-06T14:42:10.868Z,21.60
2018-07-06T14:44:40.143Z,21.60
2018-07-06T14:47:08.369Z,21.50
2018-07-06T14:49:36.997Z,21.50
2018-07-06T14:52:05.362Z,21.60
2018-07-06T14:54:33.718Z,21.70
2018-07-06T14:57:01.937Z,21.70
2018-07-06T14:59:30.837Z,21.70
2018-07-06T15:01:59.047Z,21.50
2018-07-06T15:04:27.394Z,21.40
2018-07-06T15:06:55.657Z,21.30
2018-07-06T15:09:23.830Z,21.30
2018-07-06T15:11:52.015Z,21.30
2018-07-06T15:14:20.292Z,21.30
2018-07-06T15:16:48.529Z,21.30
2018-07-06T15:19:16.780Z,21.30
2018-07-06T15:21:45.075Z,21.30
2018-07-06T15:24:13.413Z,21.40
2018-07-06T15:26:41.610Z,21.30
2018-07-06T15:29:09.901Z,21.20
2018-07-06T15:31:38.095Z,21.20
2018-07-06T15:34:06.384Z,21.10
2018-07-06T15:36:34.619Z,21.20
2018-07-06T15:39:03.134Z,21.30
2018-07-06T15:41:31.364Z,21.20
2018-07-06T15:43:59.622Z,21.10
2018-07-06T15:46:31.347Z,21.20
2018-07-06T15:48:59.537Z,21.20
2018-07-06T15:51:27.769Z,21.10
2018-07-06T15:53:55.978Z,20.90
2018-07-06T15:58:56.041Z,20.70
2018-07-06T16:01:24.330Z,20.60
2018-07-06T16:03:52.522Z,20.60
2018-07-06T16:06:20.804Z,20.70
2018-07-06T16:08:49.017Z,20.70
2018-07-06T16:11:17.251Z,20.80
2018-07-06T16:13:45.551Z,20.80
2018-07-06T16:16:13.938Z,20.70
2018-07-06T16:18:42.143Z,20.70
2018-07-06T16:21:10.397Z,20.70
2018-07-06T16:23:38.611Z,20.70
2018-07-06T16:26:07.029Z,20.80
2018-07-06T16:28:35.244Z,20.80
2018-07-06T16:31:03.375Z,20.70
2018-07-06T16:33:31.566Z,20.70
2018-07-06T16:38:27.946Z,20.70
2018-07-06T16:40:56.151Z,20.70
2018-07-06T16:43:24.313Z,20.80
2018-07-06T16:45:52.609Z,20.90
2018-07-06T16:48:20.878Z,20.80
2018-07-06T16:50:49.105Z,20.80
2018-07-06T16:53:17.309Z,20.70
2018-07-06T16:55:45.517Z,20.80
2018-07-06T16:58:13.729Z,20.90
2018-07-06T17:00:41.923Z,20.80
2018-07-06T17:03:10.199Z,20.80
2018-07-06T17:05:38.575Z,20.80
2018-07-06T17:08:07.753Z,20.80
2018-07-06T17:10:35.903Z,20.70
2018-07-06T17:13:04.140Z,20.70
2018-07-06T17:15:32.490Z,20.60
2018-07-06T17:18:00.685Z,20.60
2018-07-06T17:20:28.910Z,20.70
2018-07-06T17:22:57.110Z,20.80
2018-07-06T17:25:25.341Z,21.00
2018-07-06T17:27:53.638Z,21.00
2018-07-06T17:30:21.845Z,21.00
2018-07-06T17:32:50.083Z,20.90
2018-07-06T17:35:18.307Z,20.80
2018-07-06T17:37:46.813Z,20.80
2018-07-06T17:40:15.065Z,20.90
2018-07-06T17:42:43.292Z,20.90
2018-07-06T17:45:11.642Z,20.80
2018-07-06T17:47:40.027Z,20.70
2018-07-06T17:50:08.238Z,20.70
2018-07-06T17:52:36.462Z,20.50
2018-07-06T17:55:04.856Z,20.50
2018-07-06T18:00:01.217Z,20.20
2018-07-06T18:02:29.380Z,20.10
2018-07-06T18:04:58.697Z,20.00
2018-07-06T18:07:26.921Z,19.90
2018-07-06T18:09:55.419Z,19.70
2018-07-06T18:12:23.584Z,19.60
2018-07-06T18:14:52.628Z,19.50
2018-07-06T18:17:20.788Z,19.50
2018-07-06T18:19:49.109Z,19.50
2018-07-06T18:22:17.322Z,19.50
2018-07-06T18:24:45.699Z,19.40
2018-07-06T18:27:13.869Z,19.50
2018-07-06T18:34:38.116Z,19.50
2018-07-06T18:37:06.356Z,19.50
2018-07-06T18:39:34.765Z,19.50
2018-07-06T18:42:03.007Z,19.50
2018-07-06T18:44:31.241Z,19.60
2018-07-06T18:46:59.421Z,19.60
2018-07-06T18:49:27.855Z,19.60
2018-07-06T18:51:56.056Z,19.50
2018-07-06T18:54:25.424Z,19.40
2018-07-06T18:56:53.635Z,19.40
2018-07-06T18:59:21.839Z,19.30
2018-07-06T19:01:50.060Z,19.30
2018-07-06T19:04:18.273Z,19.30
2018-07-06T19:06:46.439Z,19.20
2018-07-06T19:09:14.627Z,19.10
2018-07-06T19:11:42.787Z,19.10
2018-07-06T19:14:11.065Z,19.10
2018-07-06T19:16:39.271Z,19.00
2018-07-06T19:19:07.555Z,19.00
2018-07-06T19:21:35.801Z,19.00
2018-07-06T19:24:04.023Z,19.00
2018-07-06T19:26:32.263Z,19.00
2018-07-06T19:29:00.759Z,18.90
2018-07-06T19:33:56.965Z,18.90
2018-07-06T19:36:25.189Z,18.80
2018-07-06T19:38:53.451Z,18.80
2018-07-06T19:41:21.650Z,18.70
2018-07-06T19:43:50.091Z,18.70
2018-07-06T19:46:21.544Z,18.60
2018-07-06T19:51:18.035Z,18.50
2018-07-06T19:53:46.260Z,18.50
2018-07-06T19:56:14.554Z,18.40
2018-07-06T19:58:42.883Z,18.40
2018-07-06T20:01:11.206Z,18.40
2018-07-06T20:03:39.411Z,18.40
2018-07-06T20:06:07.822Z,18.40
2018-07-06T20:08:36.024Z,18.40
2018-07-06T20:11:04.360Z,18.40
2018-07-06T20:13:32.562Z,18.40
2018-07-06T20:16:00.916Z,18.40
2018-07-06T20:18:29.063Z,18.40
2018-07-06T20:20:57.753Z,18.30
2018-07-06T20:23:26.094Z,18.30
2018-07-06T20:25:54.404Z,18.30
2018-07-06T20:28:22.585Z,18.20
2018-07-06T20:30:50.808Z,18.20
2018-07-06T20:33:19.066Z,18.30
2018-07-06T20:35:47.455Z,18.20
2018-07-06T20:38:15.678Z,18.20
2018-07-06T20:40:44.162Z,18.20
2018-07-06T20:43:12.356Z,18.20
2018-07-06T20:46:00.736Z,18.10
2018-07-06T20:48:29.230Z,18.10
2018-07-06T20:50:57.652Z,18.00
2018-07-06T20:53:25.875Z,17.90
2018-07-06T20:58:22.388Z,17.90
2018-07-06T21:00:50.634Z,17.80
2018-07-06T21:03:18.889Z,17.70
2018-07-06T21:05:47.310Z,17.60
2018-07-06T21:08:15.524Z,17.60
2018-07-06T21:10:43.691Z,17.60
2018-07-06T21:13:11.872Z,17.60
2018-07-06T21:15:40.165Z,17.50
2018-07-06T21:18:08.411Z,17.50
2018-07-06T21:23:04.649Z,17.50
2018-07-06T21:25:32.921Z,17.50
2018-07-06T21:28:01.169Z,17.50
2018-07-06T21:30:29.419Z,17.50
2018-07-06T21:32:57.599Z,17.50
2018-07-06T21:35:27.792Z,17.40
2018-07-06T21:37:55.968Z,17.40
2018-07-06T21:40:24.155Z,17.40
2018-07-06T21:42:52.366Z,17.50
2018-07-06T21:45:20.719Z,17.40
2018-07-06T21:47:48.932Z,17.40
2018-07-06T21:50:17.168Z,17.40
2018-07-06T21:52:45.371Z,17.30
2018-07-06T21:55:13.647Z,17.30
2018-07-06T21:57:41.857Z,17.30
2018-07-06T22:00:10.176Z,17.30
2018-07-06T22:02:38.449Z,17.30
2018-07-06T22:07:35.701Z,17.20
2018-07-06T22:10:04.130Z,17.20
2018-07-06T22:12:32.350Z,17.20
2018-07-06T22:15:00.660Z,17.20
2018-07-06T22:17:28.850Z,17.20
2018-07-06T22:19:57.010Z,17.20
2018-07-06T22:22:25.290Z,17.20
2018-07-06T22:24:53.596Z,17.10
2018-07-06T22:27:21.750Z,17.10
2018-07-06T22:29:49.940Z,17.20
2018-07-06T22:32:18.139Z,17.10
2018-07-06T22:34:47.530Z,17.10
2018-07-06T22:37:15.727Z,17.10
2018-07-06T22:39:43.996Z,17.10
2018-07-06T22:42:12.175Z,17.00
2018-07-06T22:45:11.107Z,17.00
2018-07-06T22:47:39.291Z,17.00
2018-07-06T22:50:07.558Z,17.00
2018-07-06T22:52:35.992Z,17.00
2018-07-06T22:55:04.358Z,17.00
2018-07-06T22:57:32.581Z,17.00
2018-07-06T23:00:00.761Z,17.00
2018-07-06T23:02:28.959Z,17.00
2018-07-06T23:04:57.449Z,17.00
2018-07-06T23:07:25.648Z,17.00
2018-07-06T23:09:54.174Z,17.00
2018-07-06T23:12:22.452Z,16.90
2018-07-06T23:14:50.850Z,16.90
2018-07-06T23:17:19.040Z,16.90
2018-07-06T23:19:47.353Z,16.90
2018-07-06T23:22:25.148Z,16.80
2018-07-06T23:24:53.516Z,16.70
2018-07-06T23:27:21.704Z,16.60
2018-07-06T23:29:49.975Z,16.50
2018-07-06T23:32:18.295Z,16.50
2018-07-06T23:34:46.431Z,16.40
2018-07-06T23:37:14.672Z,16.30
2018-07-06T23:39:43.098Z,16.30
2018-07-06T23:42:11.317Z,16.20
2018-07-06T23:44:39.782Z,16.20
2018-07-06T23:47:08.051Z,16.20
2018-07-06T23:49:36.256Z,16.20
2018-07-06T23:52:04.478Z,16.20
2018-07-06T23:54:32.824Z,16.20
2018-07-06T23:57:01.038Z,16.20
2018-07-06T23:59:29.213Z,16.30
